ENFL

Florø Airport

Florø, Norway
TAF ENFL 180800Z 1809/1818 18015KT 9999 FEW015 BKN025 TEMPO 1809/1813 RA BKN014 PROB30 1809/1813 4000 RA BKN009 TEMPO 1812/1818 22020G30KT BECMG 1813/1815 NSW
Issued Valid From Valid To
Jun-18 @ 08:00 UTC
(3 hours ago)
Jun-18 @ 09:00 UTC
(2 hours ago)
Jun-18 @ 18:00 UTC
(in 7 hours)
Jun-18 @ 09:00 to Jun-18 @ 13:00
TAF ENFL 180800Z 1809/1818 18015KT 9999 FEW015 BKN025
Wind Visibility Clouds
180° at 15 knots 10,000+ meters
  • Few at 1,500' AGL
  • Broken at 2,500' AGL
Temporary Jun-18 @ 09:00 to Jun-18 @ 13:00
TEMPO 1809/1813 RA BKN014
Clouds Conditions
  • Broken at 1,400' AGL
  • Rain
Probable  (Probability 30%) Jun-18 @ 09:00 to Jun-18 @ 13:00
PROB30 1809/1813 4000 RA BKN009
Visibility Clouds Conditions
4,007 meters
  • Broken at 900' AGL
  • Rain
Temporary Jun-18 @ 12:00 to Jun-18 @ 18:00
TEMPO 1812/1818 22020G30KT
Wind
220° at 20 knots
 Gusting to 30 knots
Becoming Jun-18 @ 13:00 to Jun-18 @ 18:00
BECMG 1813/1815 NSW
Wind Visibility Clouds Conditions
180° at 15 knots 10,000+ meters
  • Few at 1,500' AGL
  • Broken at 2,500' AGL
TAF ENFL 180800Z 1809/1818 18015KT 9999 FEW015 BKN025 TEMPO 1809/1813 RA BKN014 PROB30 1809/1813 4000 RA BKN009 TEMPO 1812/1818 22020G30KT BECMG 1813/1815 NSW
Issued Jun-18 @ 08:00 UTC
(3 hours ago)
Valid From Jun-18 @ 09:00 UTC
(2 hours ago)
Valid To Jun-18 @ 18:00 UTC
(in 7 hours)
Jun-18 @ 09:00 - Jun-18 @ 13:00
Wind Visibility
180° at 15 knots 10,000+ meters
Clouds
  • Few at 1,500' AGL
  • Broken at 2,500' AGL
Temporary Jun-18 @ 09:00 - Jun-18 @ 13:00
Clouds
  • Broken at 1,400' AGL
Conditions
  • Rain
Probability 30% Probable Jun-18 @ 09:00 - Jun-18 @ 13:00
Clouds
  • Broken at 900' AGL
Conditions
  • Rain
Temporary Jun-18 @ 12:00 - Jun-18 @ 18:00
Wind
220° at 20 knots
 Gusting to 30 knots
Becoming Jun-18 @ 13:00 - Jun-18 @ 18:00
Wind Visibility
180° at 15 knots 10,000+ meters
Clouds
  • Few at 1,500' AGL
  • Broken at 2,500' AGL
Conditions